Terminal Aerodrome Forecast
Issued by NWS Tuscon, AZ

Home | Current Version | Previous Version | Text Only | Print | Product List | Glossary On
Versions: 1 2 3 4 5 6 7 8 9 10 11 12 13 14 15 16 17 18
000
FTUS45 KTWC 211300 AAA
TAFDUG
TAF AMD
KDUG 211317Z 2113/2212 VRB03KT P6SM SCT050 BKN070 OVC200
     FM211900 08006KT P6SM VCSH SCT030 BKN050 BKN100
     FM212300 11009KT P6SM SCT050 BKN100
     FM220600 15006KT P6SM FEW060 SCT100=

USA.gov is the U.S. government's official web portal to all federal, state and local government web resources and services.